Time;durP1;ratioP1;P1;durP2;ratioP2;P2;SDS_P1;SDS_P2;PMS_P1;PMS_P2;Temp;Humidity;BMP_temperature;BMP_pressure;BME280_temperature;BME280_humidity;BME280_pressure;Samples;Min_cycle;Max_cycle;Signal;HPM_P1;HPM_P2
2022/11/04 00:01:43;;;;;;;2.08;1.20;;;12.50;80.30;;;;;;5066926;28;20071;-71
2022/11/04 00:04:10;;;;;;;2.83;1.15;;;12.40;80.00;;;;;;5090928;28;20125;-72
2022/11/04 00:06:36;;;;;;;1.77;0.80;;;12.50;79.90;;;;;;5046732;28;20078;-71
2022/11/04 00:09:03;;;;;;;3.28;1.13;;;12.50;79.80;;;;;;5026716;28;20067;-72
2022/11/04 00:14:14;;;;;;;1.48;0.80;;;12.50;79.60;;;;;;5073145;28;20071;-72
2022/11/04 00:19:24;;;;;;;;;;;12.50;79.40;;;;;;5074413;28;20131;-72
2022/11/04 00:30:07;;;;;;;0.95;0.50;;;12.40;79.00;;;;;;5073683;28;20051;-72
2022/11/04 00:35:17;;;;;;;;;;;12.40;78.60;;;;;;5074414;28;20036;-72
2022/11/04 00:37:44;;;;;;;0.70;0.20;;;12.40;78.30;;;;;;5073796;28;19931;-72
2022/11/04 00:40:13;;;;;;;1.10;0.40;;;12.40;78.50;;;;;;5073825;28;20036;-72
2022/11/04 00:42:38;;;;;;;0.45;0.28;;;12.40;78.30;;;;;;5073650;28;20047;-72
2022/11/04 00:45:05;;;;;;;2.20;0.47;;;12.40;78.20;;;;;;5073256;28;20510;-72
2022/11/04 00:47:31;;;;;;;1.25;0.57;;;12.40;78.10;;;;;;5073447;28;20051;-71
2022/11/04 00:49:57;;;;;;;2.45;0.50;;;12.30;78.00;;;;;;5073519;28;20040;-72
2022/11/04 00:52:23;;;;;;;0.95;0.30;;;12.30;78.00;;;;;;5073205;28;20410;-72
2022/11/04 00:54:49;;;;;;;1.92;0.40;;;12.30;78.00;;;;;;5056705;28;20048;-72
2022/11/04 00:57:15;;;;;;;2.03;0.40;;;12.30;78.10;;;;;;5057987;28;20032;-70
2022/11/04 00:59:41;;;;;;;1.63;0.40;;;12.30;78.20;;;;;;5057108;28;20127;-70
2022/11/04 01:02:08;;;;;;;2.28;0.50;;;12.30;78.30;;;;;;5073487;28;20040;-70
2022/11/04 01:04:34;;;;;;;0.70;0.30;;;12.30;78.40;;;;;;5059672;28;20464;-71
2022/11/04 01:07:00;;;;;;;1.85;0.65;;;12.20;78.40;;;;;;5066302;28;20067;-71
2022/11/04 01:09:26;;;;;;;2.88;0.50;;;12.20;78.50;;;;;;5077536;28;20082;-70
2022/11/04 01:11:52;;;;;;;1.33;0.38;;;12.30;78.60;;;;;;5061232;28;20032;-70
2022/11/04 01:14:18;;;;;;;1.42;0.55;;;12.30;78.70;;;;;;5077452;28;20528;-71
2022/11/04 01:16:43;;;;;;;1.58;0.47;;;12.30;78.70;;;;;;5038929;28;20047;-71
2022/11/04 01:19:10;;;;;;;1.98;0.73;;;12.20;78.70;;;;;;5077614;28;20042;-71
2022/11/04 01:21:35;;;;;;;2.65;0.50;;;12.30;78.80;;;;;;5077514;28;20123;-71
2022/11/04 01:24:01;;;;;;;2.25;0.40;;;12.30;78.90;;;;;;5077338;28;20546;-70
2022/11/04 01:26:28;;;;;;;2.08;0.50;;;12.30;78.90;;;;;;5076555;28;20039;-71
2022/11/04 01:28:56;;;;;;;2.17;0.60;;;12.30;79.00;;;;;;5051300;28;20040;-71
2022/11/04 01:31:27;;;;;;;2.80;0.50;;;12.30;79.10;;;;;;5076444;28;20036;-71
2022/11/04 01:33:53;;;;;;;1.90;0.40;;;12.20;79.10;;;;;;5075003;28;20044;-71
2022/11/04 01:36:20;;;;;;;0.77;0.30;;;12.20;79.20;;;;;;5060621;28;20028;-71
2022/11/04 01:38:46;;;;;;;1.15;0.40;;;12.20;79.70;;;;;;5073738;28;20557;-71
2022/11/04 01:41:21;;;;;;;1.95;0.50;;;12.30;79.40;;;;;;5077192;28;20165;-71
2022/11/04 01:43:53;;;;;;;1.88;0.30;;;12.20;79.30;;;;;;5076881;28;20119;-71
2022/11/04 01:46:36;;;;;;;2.15;0.38;;;12.20;79.30;;;;;;5074500;28;20047;-71
2022/11/04 01:49:08;;;;;;;1.08;0.50;;;12.20;79.30;;;;;;5055992;28;20036;-71
2022/11/04 01:51:36;;;;;;;1.85;0.50;;;12.20;79.30;;;;;;5076945;28;20028;-71
2022/11/04 01:54:05;;;;;;;1.23;0.30;;;12.20;79.40;;;;;;5059820;28;20433;-72
2022/11/04 01:56:32;;;;;;;2.20;0.38;;;12.20;79.40;;;;;;5060557;28;20032;-72
2022/11/04 01:59:03;;;;;;;2.42;0.50;;;12.20;79.40;;;;;;5053090;28;20040;-71
2022/11/04 02:01:30;;;;;;;2.35;0.55;;;12.20;79.30;;;;;;5076486;28;20040;-71
2022/11/04 02:04:24;;;;;;;1.40;0.30;;;12.20;79.30;;;;;;5059517;28;20129;-72
2022/11/04 02:06:49;;;;;;;2.40;0.40;;;12.30;79.30;;;;;;5075127;28;20051;-72
2022/11/04 02:09:17;;;;;;;1.85;0.60;;;12.20;79.00;;;;;;5092940;28;20040;-72
2022/11/04 02:14:27;;;;;;;0.60;0.20;;;12.20;78.80;;;;;;5051212;28;20398;-72
2022/11/04 02:17:11;;;;;;;2.20;0.45;;;12.20;78.70;;;;;;5044360;28;20123;-71
2022/11/04 02:19:59;;;;;;;2.15;0.50;;;12.20;78.80;;;;;;5073130;28;20048;-72
2022/11/04 02:22:42;;;;;;;4.57;0.50;;;12.20;78.70;;;;;;5084966;28;20095;-71
2022/11/04 02:25:22;;;;;;;2.40;0.75;;;12.20;78.80;;;;;;5080398;28;20044;-71
2022/11/04 02:28:14;;;;;;;1.60;0.40;;;12.20;78.90;;;;;;5076230;28;20044;-71
2022/11/04 02:30:52;;;;;;;0.75;0.30;;;12.20;78.80;;;;;;5049570;28;20125;-71
2022/11/04 02:33:20;;;;;;;2.53;0.40;;;12.20;79.00;;;;;;5058663;28;20121;-71
2022/11/04 02:36:32;;;;;;;4.15;0.60;;;12.20;79.10;;;;;;5072430;28;20036;-71
2022/11/04 02:39:35;;;;;;;2.85;0.68;;;12.20;79.10;;;;;;5092751;28;20517;-72
2022/11/04 02:42:32;;;;;;;3.63;0.60;;;12.20;79.30;;;;;;5060163;28;20578;-71
2022/11/04 02:45:24;;;;;;;3.13;0.40;;;12.10;79.30;;;;;;5046621;28;20080;-72
2022/11/04 02:48:17;;;;;;;5.35;0.70;;;12.10;79.40;;;;;;5075486;28;20058;-72
2022/11/04 02:50:46;;;;;;;5.57;0.75;;;12.20;79.90;;;;;;5075682;28;20043;-72
2022/11/04 02:53:31;;;;;;;2.67;0.50;;;12.10;79.60;;;;;;5075614;28;20048;-71
2022/11/04 02:55:58;;;;;;;3.25;0.63;;;12.10;79.60;;;;;;5067017;28;20119;-72
2022/11/04 02:58:33;;;;;;;2.47;0.50;;;12.20;79.70;;;;;;5059175;28;20040;-73
2022/11/04 03:01:01;;;;;;;2.05;0.30;;;12.10;79.70;;;;;;5070994;28;20581;-72
2022/11/04 03:03:36;;;;;;;1.67;0.50;;;12.10;79.70;;;;;;5062550;28;20043;-73
2022/11/04 03:06:03;;;;;;;2.95;1.05;;;12.10;79.70;;;;;;5092379;28;20058;-72
2022/11/04 03:08:42;;;;;;;1.45;0.32;;;12.10;79.80;;;;;;5092091;28;20035;-72
2022/11/04 03:11:16;;;;;;;2.45;0.85;;;12.10;79.80;;;;;;5063724;28;20123;-73
2022/11/04 03:14:00;;;;;;;3.88;0.60;;;12.20;79.80;;;;;;5069746;28;20119;-72
2022/11/04 03:16:29;;;;;;;;;;;12.10;79.60;;;;;;5065941;28;20466;-72
2022/11/04 03:19:29;;;;;;;2.97;0.38;;;12.10;79.30;;;;;;5075249;28;19962;-72
2022/11/04 03:22:03;;;;;;;1.85;0.60;;;12.10;79.60;;;;;;5064900;28;20078;-73
2022/11/04 03:24:30;;;;;;;2.50;0.45;;;12.00;79.50;;;;;;5073297;28;20043;-73
2022/11/04 03:27:07;;;;;;;2.30;0.40;;;12.10;79.40;;;;;;5057217;28;20032;-73
2022/11/04 03:29:38;;;;;;;1.55;0.43;;;12.00;79.30;;;;;;5055867;28;20047;-72
2022/11/04 03:32:19;;;;;;;1.00;0.30;;;12.00;79.30;;;;;;5072443;28;20036;-73
2022/11/04 03:34:45;;;;;;;2.78;0.40;;;12.00;79.30;;;;;;5059067;28;20036;-73
2022/11/04 03:37:10;;;;;;;1.20;0.40;;;12.00;79.30;;;;;;5074925;28;20043;-73
2022/11/04 03:39:36;;;;;;;1.77;0.40;;;12.00;79.30;;;;;;5042460;28;20511;-73
2022/11/04 03:42:18;;;;;;;1.92;0.40;;;12.00;79.30;;;;;;5038336;28;20080;-73
2022/11/04 03:45:04;;;;;;;4.13;0.90;;;12.00;79.30;;;;;;5073826;28;20052;-73
2022/11/04 03:47:31;;;;;;;1.98;0.40;;;12.00;79.10;;;;;;5091172;28;20051;-73
2022/11/04 03:50:07;;;;;;;2.13;0.60;;;12.00;79.20;;;;;;5046808;28;20036;-73
2022/11/04 03:52:33;;;;;;;1.50;0.77;;;12.00;79.20;;;;;;5058645;28;20033;-72
2022/11/04 03:54:58;;;;;;;2.63;0.90;;;12.00;79.30;;;;;;5074689;28;20053;-73
2022/11/04 03:58:01;;;;;;;3.15;0.60;;;12.00;79.30;;;;;;5055771;28;20036;-73
2022/11/04 04:00:32;;;;;;;1.45;0.50;;;12.00;79.20;;;;;;5051400;28;20084;-73
2022/11/04 04:03:06;;;;;;;2.33;0.40;;;12.00;79.30;;;;;;5073575;28;20089;-73
2022/11/04 04:05:47;;;;;;;2.37;0.60;;;12.00;79.30;;;;;;5074131;28;20046;-73
2022/11/04 04:08:48;;;;;;;2.20;0.88;;;12.00;79.30;;;;;;5057398;28;20507;-72
2022/11/04 04:11:34;;;;;;;2.83;0.75;;;12.00;79.20;;;;;;5072310;28;20535;-72
2022/11/04 04:14:39;;;;;;;2.45;0.70;;;12.00;79.20;;;;;;5090312;28;20036;-72
2022/11/04 04:17:34;;;;;;;0.75;0.50;;;11.90;78.80;;;;;;5005228;28;20049;-72
2022/11/04 04:20:17;;;;;;;2.40;0.65;;;11.90;78.90;;;;;;5074216;28;20048;-73
2022/11/04 04:22:53;;;;;;;1.30;0.52;;;11.90;79.00;;;;;;5060187;28;20043;-72
2022/11/04 04:28:06;;;;;;;1.58;0.20;;;11.80;78.70;;;;;;5073884;28;20051;-72
2022/11/04 04:30:33;;;;;;;1.02;0.28;;;11.80;78.40;;;;;;5074164;28;20391;-72
2022/11/04 04:33:05;;;;;;;2.28;0.65;;;11.80;78.20;;;;;;5053776;28;20039;-72
2022/11/04 04:35:42;;;;;;;2.05;0.40;;;11.80;78.00;;;;;;5073930;28;20032;-72
2022/11/04 04:46:51;;;;;;;1.05;0.30;;;11.70;77.70;;;;;;5073441;28;20131;-72
2022/11/04 04:49:16;;;;;;;0.73;0.30;;;11.70;77.70;;;;;;5048450;28;20039;-73
2022/11/04 04:51:45;;;;;;;0.80;0.30;;;11.70;77.80;;;;;;5073910;28;20390;-73
2022/11/04 04:54:11;;;;;;;2.05;0.50;;;11.70;77.60;;;;;;5073519;28;20047;-72
2022/11/04 04:56:37;;;;;;;1.80;0.45;;;11.70;77.60;;;;;;5073641;28;20032;-73
2022/11/04 04:59:02;;;;;;;0.70;0.30;;;11.60;77.60;;;;;;5080025;28;20044;-72
2022/11/04 05:01:28;;;;;;;1.48;0.30;;;11.70;77.60;;;;;;5073488;28;20040;-73
2022/11/04 05:03:54;;;;;;;1.65;0.40;;;11.70;77.50;;;;;;5054965;28;20040;-73
2022/11/04 05:06:19;;;;;;;1.55;0.82;;;11.70;77.40;;;;;;5055491;28;20512;-73
2022/11/04 05:08:45;;;;;;;2.25;0.50;;;11.70;77.80;;;;;;5072985;28;20036;-73
2022/11/04 05:11:11;;;;;;;1.00;0.32;;;11.70;77.30;;;;;;5073554;28;20067;-73
2022/11/04 05:13:37;;;;;;;1.88;0.43;;;11.70;77.10;;;;;;5072914;28;20032;-73
2022/11/04 05:16:05;;;;;;;1.02;0.60;;;11.70;77.00;;;;;;5073562;28;20044;-73
2022/11/04 05:18:31;;;;;;;2.58;0.70;;;11.60;76.90;;;;;;5073444;28;20044;-73
2022/11/04 05:20:57;;;;;;;1.38;0.43;;;11.60;76.90;;;;;;5073695;28;20044;-73
2022/11/04 05:23:22;;;;;;;2.80;0.50;;;11.60;76.90;;;;;;5073345;28;20078;-73
2022/11/04 05:25:48;;;;;;;4.75;1.15;;;11.60;76.90;;;;;;5073721;28;20032;-73
2022/11/04 05:28:14;;;;;;;1.65;0.50;;;11.60;76.90;;;;;;5072347;28;20037;-73
2022/11/04 05:30:39;;;;;;;3.03;0.50;;;11.60;76.90;;;;;;5055341;28;20032;-73
2022/11/04 05:33:06;;;;;;;1.33;0.30;;;11.60;76.90;;;;;;5072736;28;20036;-73
2022/11/04 05:35:32;;;;;;;1.10;0.35;;;11.60;76.80;;;;;;5056998;28;20202;-72
2022/11/04 05:37:58;;;;;;;1.52;0.43;;;11.60;76.70;;;;;;5065187;28;20112;-73
2022/11/04 05:40:24;;;;;;;2.55;0.70;;;11.60;76.60;;;;;;5073472;28;20435;-73
2022/11/04 05:42:49;;;;;;;1.50;0.85;;;11.50;76.60;;;;;;5049522;28;20048;-73
2022/11/04 05:45:15;;;;;;;1.70;0.82;;;11.50;76.60;;;;;;5073158;28;20032;-73
2022/11/04 05:47:41;;;;;;;1.23;0.68;;;11.50;76.50;;;;;;5056312;28;20036;-73
2022/11/04 05:50:07;;;;;;;2.33;0.80;;;11.40;76.40;;;;;;5057516;28;20028;-72
2022/11/04 05:52:32;;;;;;;2.13;0.80;;;11.50;76.40;;;;;;5053517;28;20036;-72
2022/11/04 05:54:58;;;;;;;0.98;0.50;;;11.40;76.40;;;;;;5061499;28;20541;-72
2022/11/04 05:57:24;;;;;;;1.02;0.60;;;11.40;76.20;;;;;;5053579;28;20036;-72
2022/11/04 05:59:49;;;;;;;1.30;0.60;;;11.40;76.20;;;;;;5057361;28;20032;-72
2022/11/04 06:02:15;;;;;;;1.17;0.45;;;11.40;76.30;;;;;;5044264;28;20065;-72
2022/11/04 06:04:41;;;;;;;0.82;0.28;;;11.40;76.30;;;;;;5045596;28;20119;-72
2022/11/04 06:07:07;;;;;;;0.93;0.40;;;11.40;76.30;;;;;;5076191;28;20494;-72
2022/11/04 06:09:39;;;;;;;2.35;0.60;;;11.40;76.20;;;;;;5042814;28;20040;-72
2022/11/04 06:12:13;;;;;;;1.02;0.50;;;11.40;76.20;;;;;;5060416;28;20119;-72
2022/11/04 06:14:40;;;;;;;2.20;0.47;;;11.40;76.40;;;;;;5075946;28;20031;-72
2022/11/04 06:17:06;;;;;;;0.98;0.43;;;11.30;76.40;;;;;;5047377;28;20040;-72
2022/11/04 06:19:32;;;;;;;0.65;0.30;;;11.30;76.50;;;;;;5056713;28;20044;-72
2022/11/04 06:21:59;;;;;;;0.75;0.40;;;11.30;76.50;;;;;;5059825;28;20040;-73
2022/11/04 06:24:24;;;;;;;2.10;0.43;;;11.40;76.50;;;;;;5059464;28;20111;-71
2022/11/04 06:26:50;;;;;;;4.90;0.57;;;11.30;76.50;;;;;;5076102;28;20563;-71
2022/11/04 06:29:16;;;;;;;0.80;0.25;;;11.30;76.50;;;;;;5075540;28;20098;-71
2022/11/04 06:31:42;;;;;;;0.88;0.30;;;11.30;76.50;;;;;;5074786;28;20047;-70
2022/11/04 06:34:07;;;;;;;0.73;0.30;;;11.30;76.50;;;;;;5075726;28;20108;-70
2022/11/04 06:36:33;;;;;;;0.45;0.30;;;11.30;76.30;;;;;;5076378;28;20031;-71
2022/11/04 06:38:59;;;;;;;0.93;0.30;;;11.30;76.30;;;;;;5060304;28;20127;-71
2022/11/04 06:41:24;;;;;;;2.30;0.47;;;11.30;76.30;;;;;;5077265;28;20395;-71
2022/11/04 06:43:50;;;;;;;1.20;0.38;;;11.30;76.30;;;;;;5060364;28;20051;-71
2022/11/04 06:46:27;;;;;;;2.30;0.30;;;11.30;76.30;;;;;;5070121;28;20051;-71
2022/11/04 06:48:53;;;;;;;0.68;0.32;;;11.30;76.30;;;;;;5073532;28;20032;-71
2022/11/04 06:51:19;;;;;;;0.82;0.30;;;11.30;76.30;;;;;;5077217;28;20504;-71
2022/11/04 06:53:45;;;;;;;0.22;0.20;;;11.30;76.20;;;;;;5076622;28;20115;-71
2022/11/04 06:56:10;;;;;;;0.95;0.20;;;11.30;76.60;;;;;;5060204;28;20042;-71
2022/11/04 06:58:36;;;;;;;0.40;0.28;;;11.30;76.20;;;;;;5043386;28;20070;-71
2022/11/04 07:01:02;;;;;;;1.02;0.38;;;11.30;76.30;;;;;;5076313;28;20047;-71
2022/11/04 07:03:28;;;;;;;0.68;0.20;;;11.20;76.20;;;;;;5075873;28;20044;-71
2022/11/04 07:05:54;;;;;;;3.10;0.40;;;11.20;76.30;;;;;;5076719;28;20050;-71
2022/11/04 07:08:20;;;;;;;0.95;0.43;;;11.20;76.30;;;;;;5076508;28;20040;-71
2022/11/04 07:10:46;;;;;;;0.80;0.40;;;11.20;76.40;;;;;;5059510;28;20047;-71
2022/11/04 07:13:11;;;;;;;1.63;0.50;;;11.20;76.50;;;;;;5075942;28;20040;-70
2022/11/04 07:15:38;;;;;;;0.75;0.60;;;11.20;76.60;;;;;;5054323;28;20127;-70
2022/11/04 07:18:05;;;;;;;2.53;1.05;;;11.20;76.70;;;;;;5059023;28;20036;-70
2022/11/04 07:20:37;;;;;;;0.95;0.38;;;11.20;76.80;;;;;;5076398;28;20387;-71
2022/11/04 07:23:03;;;;;;;2.58;0.47;;;11.20;76.90;;;;;;5076263;28;20044;-70
2022/11/04 07:25:29;;;;;;;1.10;0.50;;;11.10;77.00;;;;;;5059385;28;20035;-71
2022/11/04 07:27:55;;;;;;;1.83;0.38;;;11.20;77.10;;;;;;5058279;28;20046;-70
2022/11/04 07:30:20;;;;;;;2.40;0.30;;;11.20;77.30;;;;;;5069589;28;20119;-73
2022/11/04 07:32:46;;;;;;;2.72;0.68;;;11.20;77.40;;;;;;5043346;28;20118;-75
2022/11/04 07:35:12;;;;;;;1.27;0.40;;;11.10;77.60;;;;;;5076320;28;20036;-72
2022/11/04 07:37:38;;;;;;;2.65;0.60;;;11.20;77.70;;;;;;5043331;28;20064;-72
2022/11/04 07:40:05;;;;;;;1.33;0.50;;;11.20;77.90;;;;;;5052150;28;20044;-72
2022/11/04 07:42:31;;;;;;;1.67;0.70;;;11.20;78.00;;;;;;5072508;28;20466;-72
2022/11/04 07:44:57;;;;;;;3.28;0.52;;;11.20;78.00;;;;;;5055774;28;20079;-72
2022/11/04 07:47:23;;;;;;;2.53;0.60;;;11.30;78.10;;;;;;5056296;28;20079;-72
2022/11/04 07:49:48;;;;;;;1.33;0.50;;;11.30;78.10;;;;;;5039064;28;20033;-72
2022/11/04 07:52:14;;;;;;;1.88;0.70;;;11.30;78.10;;;;;;5050158;28;20044;-72
2022/11/04 07:54:40;;;;;;;2.97;0.55;;;11.30;78.20;;;;;;5075738;28;20079;-72
2022/11/04 07:57:05;;;;;;;0.60;0.30;;;11.30;78.20;;;;;;5041690;28;20036;-72
2022/11/04 07:59:32;;;;;;;4.10;0.75;;;11.40;78.30;;;;;;5042468;28;20043;-72
2022/11/04 08:01:58;;;;;;;2.03;0.82;;;11.40;78.40;;;;;;5074808;28;20055;-72
2022/11/04 08:04:23;;;;;;;2.42;0.70;;;11.40;78.60;;;;;;5075256;28;20040;-72
2022/11/04 08:06:49;;;;;;;3.60;0.80;;;11.50;79.10;;;;;;5075033;28;20047;-72
2022/11/04 08:09:15;;;;;;;1.25;0.43;;;11.60;79.50;;;;;;5058771;28;20189;-72
2022/11/04 08:11:40;;;;;;;1.65;0.77;;;11.70;79.90;;;;;;5075420;28;20040;-72
2022/11/04 08:14:07;;;;;;;1.45;0.55;;;11.80;79.90;;;;;;5075410;28;20035;-72
2022/11/04 08:16:33;;;;;;;2.88;0.75;;;12.00;79.90;;;;;;5074632;28;20076;-72
2022/11/04 08:19:01;;;;;;;1.33;0.50;;;12.30;79.80;;;;;;5054840;28;20598;-72
2022/11/04 08:21:29;;;;;;;2.70;0.50;;;12.50;79.40;;;;;;5064029;28;20044;-72
2022/11/04 08:23:55;;;;;;;2.33;0.80;;;12.80;78.80;;;;;;5058706;28;20131;-72
2022/11/04 08:26:22;;;;;;;4.75;1.25;;;13.10;78.20;;;;;;5070732;28;20040;-72
2022/11/04 08:28:51;;;;;;;2.13;0.60;;;13.30;77.40;;;;;;5057390;28;20047;-72
2022/11/04 08:31:25;;;;;;;3.03;0.80;;;13.50;76.70;;;;;;5038586;28;20483;-72
2022/11/04 08:33:52;;;;;;;2.60;0.63;;;13.80;76.30;;;;;;5068339;28;20437;-72
2022/11/04 08:36:30;;;;;;;1.92;0.77;;;14.00;75.60;;;;;;5075087;28;20479;-73
2022/11/04 08:38:56;;;;;;;2.00;0.85;;;14.30;74.80;;;;;;5074797;28;20059;-73
2022/11/04 08:41:28;;;;;;;2.60;0.80;;;14.50;74.20;;;;;;5075117;28;20047;-73
2022/11/04 08:43:55;;;;;;;4.30;1.00;;;14.70;73.40;;;;;;5058470;28;20037;-73
2022/11/04 08:46:21;;;;;;;2.25;0.77;;;15.00;73.00;;;;;;5054873;28;20491;-72
2022/11/04 08:48:48;;;;;;;1.73;0.50;;;15.10;72.00;;;;;;5074533;28;20047;-73
2022/11/04 08:51:23;;;;;;;2.15;0.88;;;15.30;71.80;;;;;;5074559;28;20036;-72
2022/11/04 08:53:49;;;;;;;1.52;0.73;;;15.40;70.60;;;;;;5074582;28;20032;-72
2022/11/04 08:56:19;;;;;;;2.65;0.98;;;15.50;70.60;;;;;;5074768;28;20032;-73
2022/11/04 08:58:45;;;;;;;3.58;0.93;;;15.70;70.40;;;;;;5062328;28;20499;-73
2022/11/04 09:01:11;;;;;;;2.30;1.00;;;15.80;69.90;;;;;;5073301;28;20067;-73
2022/11/04 09:03:38;;;;;;;2.83;1.00;;;15.90;69.30;;;;;;5090535;28;20051;-75
2022/11/04 09:06:10;;;;;;;2.53;1.10;;;15.90;68.40;;;;;;5048805;28;20390;-76
2022/11/04 09:08:38;;;;;;;2.75;1.27;;;15.90;67.70;;;;;;5041675;28;20048;-75
2022/11/04 09:11:07;;;;;;;3.13;1.23;;;15.90;67.20;;;;;;5075293;28;20414;-75
2022/11/04 09:13:32;;;;;;;2.40;0.95;;;15.90;66.70;;;;;;5058287;28;20082;-75
2022/11/04 09:15:58;;;;;;;7.25;1.60;;;15.70;66.80;;;;;;5074898;28;20079;-75
2022/11/04 09:18:24;;;;;;;2.88;1.70;;;15.70;67.40;;;;;;5075013;28;20055;-75
2022/11/04 09:20:49;;;;;;;3.58;2.15;;;15.70;67.60;;;;;;5058660;28;20453;-75
2022/11/04 09:23:15;;;;;;;4.30;1.98;;;15.60;68.00;;;;;;5072603;28;20041;-75
2022/11/04 09:25:41;;;;;;;5.20;2.20;;;15.60;68.20;;;;;;5077011;28;20063;-76
2022/11/04 09:28:07;;;;;;;3.83;2.15;;;15.60;68.00;;;;;;5078417;28;20135;-76
2022/11/04 09:30:32;;;;;;;6.53;2.70;;;15.60;68.00;;;;;;5061972;28;20043;-76
2022/11/04 09:32:58;;;;;;;5.63;3.17;;;15.60;68.20;;;;;;5062310;28;20043;-75
2022/11/04 09:35:26;;;;;;;5.10;3.08;;;15.60;68.00;;;;;;5059214;28;20036;-76
2022/11/04 09:37:52;;;;;;;4.68;3.08;;;15.60;67.90;;;;;;5063242;28;20047;-75
2022/11/04 09:40:21;;;;;;;5.57;3.17;;;15.50;68.00;;;;;;5061287;28;20044;-75
2022/11/04 09:43:08;;;;;;;6.53;3.80;;;15.50;68.10;;;;;;5060582;28;20495;-75
2022/11/04 09:45:37;;;;;;;5.78;3.55;;;15.60;68.60;;;;;;5060620;28;20044;-75
2022/11/04 09:48:07;;;;;;;4.70;3.13;;;15.50;67.70;;;;;;5078350;28;20483;-75
2022/11/04 09:50:50;;;;;;;4.05;2.90;;;15.40;67.20;;;;;;5078212;28;20040;-75
2022/11/04 09:53:22;;;;;;;6.32;4.20;;;15.40;67.10;;;;;;5078320;28;20047;-76
2022/11/04 09:56:01;;;;;;;5.10;3.53;;;15.30;67.20;;;;;;5058721;28;20476;-76
2022/11/04 09:58:32;;;;;;;7.00;4.57;;;15.30;67.10;;;;;;5068582;28;20047;-76
2022/11/04 10:01:05;;;;;;;6.68;5.07;;;15.20;67.40;;;;;;5077764;28;20050;-76
2022/11/04 10:03:40;;;;;;;8.32;5.72;;;15.10;67.40;;;;;;5060785;28;20089;-77
2022/11/04 10:06:51;;;;;;;8.15;5.82;;;15.00;67.80;;;;;;5077982;28;20051;-77
2022/11/04 10:09:39;;;;;;;7.40;6.03;;;15.00;68.00;;;;;;5077692;28;20071;-76
2022/11/04 10:12:21;;;;;;;13.20;8.27;;;15.00;68.80;;;;;;5061740;28;20043;-76
2022/11/04 10:15:11;;;;;;;10.18;7.50;;;14.90;69.30;;;;;;5077679;28;20044;-76
2022/11/04 10:17:48;;;;;;;8.07;6.00;;;14.90;69.60;;;;;;5067031;28;20121;-76
2022/11/04 10:20:51;;;;;;;8.38;6.38;;;14.90;69.60;;;;;;5060935;28;20036;-76
2022/11/04 10:23:33;;;;;;;11.27;6.93;;;14.90;69.80;;;;;;5078264;28;20380;-76
2022/11/04 10:26:19;;;;;;;7.72;5.82;;;14.90;70.00;;;;;;5094269;28;20071;-76
2022/11/04 10:28:55;;;;;;;9.55;6.70;;;14.90;70.00;;;;;;5077813;28;20040;-76
2022/11/04 10:31:23;;;;;;;7.90;5.78;;;14.90;69.90;;;;;;5057903;28;20048;-76
2022/11/04 10:34:04;;;;;;;10.07;6.75;;;14.90;69.40;;;;;;5060832;28;20123;-76
2022/11/04 10:36:31;;;;;;;6.13;5.47;;;14.90;69.10;;;;;;5074333;28;20037;-76
2022/11/04 10:39:00;;;;;;;6.90;6.20;;;14.90;69.40;;;;;;5074492;28;20045;-76
2022/11/04 10:41:34;;;;;;;8.50;5.70;;;14.90;69.60;;;;;;5057373;28;20053;-76
2022/11/04 10:44:06;;;;;;;9.23;6.00;;;14.90;70.10;;;;;;5057577;28;20040;-77
2022/11/04 10:46:45;;;;;;;9.48;6.30;;;14.90;69.50;;;;;;5094177;28;20047;-76
2022/11/04 10:49:42;;;;;;;7.47;4.93;;;14.90;69.40;;;;;;5074937;28;20093;-76
2022/11/04 10:52:09;;;;;;;9.55;6.03;;;14.90;69.20;;;;;;5077592;28;20039;-76
2022/11/04 10:54:42;;;;;;;8.25;6.03;;;14.90;69.50;;;;;;5077191;28;20098;-76
2022/11/04 10:57:09;;;;;;;9.57;6.70;;;14.90;69.30;;;;;;5077245;28;20071;-76
2022/11/04 10:59:47;;;;;;;7.07;6.03;;;15.00;69.50;;;;;;5077411;28;20040;-76
2022/11/04 11:02:13;;;;;;;6.97;5.93;;;15.00;69.50;;;;;;5077073;28;20036;-77
2022/11/04 11:04:40;;;;;;;9.85;6.10;;;15.00;69.60;;;;;;5060263;28;20047;-76
2022/11/04 11:07:08;;;;;;;7.07;5.53;;;14.90;69.30;;;;;;5077126;28;20036;-76
2022/11/04 11:09:48;;;;;;;9.13;5.47;;;15.00;69.30;;;;;;5076697;28;20044;-76
2022/11/04 11:12:15;;;;;;;9.98;5.68;;;15.00;69.30;;;;;;5060598;28;20106;-76
2022/11/04 11:14:41;;;;;;;7.05;4.72;;;15.00;70.00;;;;;;5060238;28;20621;-77
2022/11/04 11:17:33;;;;;;;8.75;4.97;;;15.00;69.50;;;;;;5076875;28;20072;-76
2022/11/04 11:20:06;;;;;;;6.63;5.30;;;15.00;68.80;;;;;;5054125;28;20480;-78
2022/11/04 11:22:38;;;;;;;8.75;5.65;;;15.00;69.10;;;;;;5058616;28;20101;-77
2022/11/04 11:25:27;;;;;;;8.02;5.57;;;15.10;69.20;;;;;;5041801;28;20048;-76
2022/11/04 11:27:54;;;;;;;6.88;5.43;;;15.10;69.10;;;;;;5076596;28;20047;-77
2022/11/04 11:30:33;;;;;;;7.63;5.05;;;15.10;69.20;;;;;;5076405;28;20076;-76
2022/11/04 11:33:03;;;;;;;5.03;3.20;;;15.10;69.10;;;;;;5076577;28;20047;-77
2022/11/04 11:35:41;;;;;;;4.55;2.35;;;15.10;68.30;;;;;;5076438;28;20111;-76
2022/11/04 11:38:20;;;;;;;6.13;3.20;;;15.10;68.00;;;;;;5062733;28;20042;-75
2022/11/04 11:40:47;;;;;;;4.65;1.55;;;15.10;67.80;;;;;;5076375;28;20440;-75
2022/11/04 11:43:29;;;;;;;4.07;1.35;;;15.00;67.90;;;;;;5076470;28;20116;-76
2022/11/04 11:45:58;;;;;;;3.78;1.80;;;15.00;67.70;;;;;;5076269;28;20032;-77
2022/11/04 11:48:39;;;;;;;5.38;1.92;;;15.00;67.20;;;;;;5059544;28;20044;-76
2022/11/04 11:51:06;;;;;;;3.70;1.25;;;15.00;66.90;;;;;;5075809;28;20093;-76
2022/11/04 11:53:34;;;;;;;3.67;1.40;;;14.90;67.00;;;;;;5075899;28;20259;-76
2022/11/04 11:56:25;;;;;;;4.30;1.48;;;14.90;67.20;;;;;;5074156;28;20043;-77
2022/11/04 11:59:23;;;;;;;4.20;1.20;;;14.90;67.10;;;;;;5039371;28;20043;-77
2022/11/04 12:01:58;;;;;;;5.68;1.30;;;14.80;67.00;;;;;;5066691;28;20102;-76
2022/11/04 12:04:24;;;;;;;6.50;1.40;;;14.80;67.20;;;;;;5058797;28;20042;-76
2022/11/04 12:07:08;;;;;;;6.75;1.80;;;14.80;67.50;;;;;;5074478;28;20082;-77
2022/11/04 12:09:41;;;;;;;5.05;1.50;;;14.80;67.70;;;;;;5072070;28;20048;-74
2022/11/04 12:12:22;;;;;;;3.40;1.15;;;14.80;68.10;;;;;;5054347;28;20040;-73
2022/11/04 12:15:18;;;;;;;4.88;1.05;;;14.80;68.00;;;;;;5038503;28;20102;-72
2022/11/04 12:18:04;;;;;;;7.43;1.48;;;14.80;67.90;;;;;;5072456;28;20062;-73
2022/11/04 12:21:37;;;;;;;5.65;1.20;;;14.80;68.30;;;;;;5070866;28;20133;-73
2022/11/04 12:24:23;;;;;;;4.03;0.93;;;14.80;68.40;;;;;;4993192;28;20053;-72
2022/11/04 12:27:12;;;;;;;3.88;1.20;;;14.70;68.60;;;;;;5047449;28;20043;-72
2022/11/04 12:30:05;;;;;;;3.03;0.70;;;14.60;68.30;;;;;;5075249;28;20399;-73
2022/11/04 12:32:37;;;;;;;2.80;0.80;;;14.60;68.40;;;;;;5074936;28;20121;-72
2022/11/04 12:35:31;;;;;;;5.53;1.05;;;14.50;68.70;;;;;;5062282;28;20044;-73
2022/11/04 12:38:06;;;;;;;4.13;1.53;;;14.50;69.00;;;;;;5072272;28;20062;-72
2022/11/04 12:40:52;;;;;;;4.78;1.20;;;14.50;69.00;;;;;;5075015;28;20044;-72
2022/11/04 12:43:24;;;;;;;3.35;0.70;;;14.40;68.80;;;;;;5074513;28;20036;-72
2022/11/04 12:46:16;;;;;;;5.35;1.20;;;14.40;69.20;;;;;;5074971;28;20036;-72
2022/11/04 12:49:30;;;;;;;3.63;0.77;;;14.40;69.40;;;;;;5074533;28;20055;-73
2022/11/04 12:52:05;;;;;;;3.28;0.98;;;14.30;69.60;;;;;;5050175;28;20041;-72
2022/11/04 12:54:49;;;;;;;3.63;0.88;;;14.30;70.10;;;;;;5055080;28;20379;-72
2022/11/04 12:57:48;;;;;;;4.90;1.60;;;14.30;70.30;;;;;;5063580;28;20391;-72
2022/11/04 13:00:23;;;;;;;4.00;1.27;;;14.30;70.40;;;;;;5076296;28;20050;-72
2022/11/04 13:03:15;;;;;;;3.65;1.33;;;14.30;70.60;;;;;;5078343;28;20040;-72
2022/11/04 13:05:55;;;;;;;2.60;0.82;;;14.30;69.60;;;;;;5078864;28;20075;-72
2022/11/04 13:08:23;;;;;;;4.35;1.08;;;14.20;68.90;;;;;;5078913;28;20113;-72
2022/11/04 13:10:57;;;;;;;4.22;0.80;;;14.20;68.80;;;;;;5078824;28;20040;-72
2022/11/04 13:13:33;;;;;;;3.42;0.80;;;14.10;68.30;;;;;;5078613;28;20043;-72
2022/11/04 13:16:05;;;;;;;5.15;1.08;;;14.10;68.80;;;;;;5078639;28;20101;-72
2022/11/04 13:18:36;;;;;;;4.53;0.68;;;14.10;69.20;;;;;;5078575;28;20054;-72
2022/11/04 13:21:04;;;;;;;4.53;0.80;;;14.10;69.40;;;;;;5078601;28;20051;-72
2022/11/04 13:23:51;;;;;;;5.10;0.88;;;14.10;69.60;;;;;;5078364;28;20471;-72
2022/11/04 13:26:17;;;;;;;3.67;1.20;;;14.10;69.50;;;;;;5078405;28;20044;-72
2022/11/04 13:28:49;;;;;;;3.65;0.70;;;14.10;69.10;;;;;;5078335;28;20040;-72
2022/11/04 13:31:40;;;;;;;1.98;0.60;;;14.10;69.00;;;;;;5061706;28;20070;-72
2022/11/04 13:34:33;;;;;;;1.90;0.70;;;14.10;69.40;;;;;;5059339;28;20045;-72
2022/11/04 13:37:17;;;;;;;3.10;0.52;;;14.10;69.10;;;;;;5075484;28;20040;-72
2022/11/04 13:39:51;;;;;;;2.95;0.80;;;14.10;69.00;;;;;;5078323;28;20407;-72
2022/11/04 13:42:36;;;;;;;2.53;0.82;;;14.10;69.00;;;;;;5078061;28;20044;-72
2022/11/04 13:45:11;;;;;;;2.03;0.50;;;14.10;69.00;;;;;;5078168;28;20040;-72
2022/11/04 13:47:54;;;;;;;6.03;0.93;;;14.10;69.20;;;;;;5073348;28;20028;-72